sensor_id;sensor_type;location;lat;lon;timestamp;temperature;humidity
24384;DHT22;12504;52.870;8.798;2023-10-08T00:02:45;11.60;99.90
24384;DHT22;12504;52.870;8.798;2023-10-08T00:05:10;11.60;99.90
24384;DHT22;12504;52.870;8.798;2023-10-08T00:07:36;11.70;99.90
24384;DHT22;12504;52.870;8.798;2023-10-08T00:10:01;11.70;99.90
24384;DHT22;12504;52.870;8.798;2023-10-08T00:12:28;11.70;99.90
24384;DHT22;12504;52.870;8.798;2023-10-08T00:14:54;11.70;99.90
24384;DHT22;12504;52.870;8.798;2023-10-08T00:17:20;11.70;99.90
24384;DHT22;12504;52.870;8.798;2023-10-08T00:19:46;11.60;99.90
24384;DHT22;12504;52.870;8.798;2023-10-08T00:22:18;11.60;99.90
24384;DHT22;12504;52.870;8.798;2023-10-08T00:24:44;11.50;99.90
24384;DHT22;12504;52.870;8.798;2023-10-08T00:27:12;11.60;99.90
24384;DHT22;12504;52.870;8.798;2023-10-08T00:29:40;11.60;99.90
24384;DHT22;12504;52.870;8.798;2023-10-08T00:32:08;11.60;99.90
24384;DHT22;12504;52.870;8.798;2023-10-08T00:34:41;11.60;99.90
24384;DHT22;12504;52.870;8.798;2023-10-08T00:37:09;11.60;99.90
24384;DHT22;12504;52.870;8.798;2023-10-08T00:39:36;11.60;99.90
24384;DHT22;12504;52.870;8.798;2023-10-08T00:42:03;11.60;99.90
24384;DHT22;12504;52.870;8.798;2023-10-08T00:44:36;11.60;99.90
24384;DHT22;12504;52.870;8.798;2023-10-08T00:47:13;11.60;99.90
24384;DHT22;12504;52.870;8.798;2023-10-08T00:49:38;11.60;99.90
24384;DHT22;12504;52.870;8.798;2023-10-08T00:52:20;11.60;99.90
24384;DHT22;12504;52.870;8.798;2023-10-08T00:54:52;11.60;99.90
24384;DHT22;12504;52.870;8.798;2023-10-08T00:57:30;11.60;99.90
24384;DHT22;12504;52.870;8.798;2023-10-08T01:00:00;11.50;99.90
24384;DHT22;12504;52.870;8.798;2023-10-08T01:02:30;11.60;99.90
24384;DHT22;12504;52.870;8.798;2023-10-08T01:05:15;11.60;99.90
24384;DHT22;12504;52.870;8.798;2023-10-08T01:07:48;11.50;99.90
24384;DHT22;12504;52.870;8.798;2023-10-08T01:10:17;11.50;99.90
24384;DHT22;12504;52.870;8.798;2023-10-08T01:12:47;11.50;99.90
24384;DHT22;12504;52.870;8.798;2023-10-08T01:15:33;11.50;99.90
24384;DHT22;12504;52.870;8.798;2023-10-08T01:18:01;11.50;99.90
24384;DHT22;12504;52.870;8.798;2023-10-08T01:20:32;11.50;99.90
24384;DHT22;12504;52.870;8.798;2023-10-08T01:23:09;11.50;99.90
24384;DHT22;12504;52.870;8.798;2023-10-08T01:25:42;11.50;99.90
24384;DHT22;12504;52.870;8.798;2023-10-08T01:28:09;11.50;99.90
24384;DHT22;12504;52.870;8.798;2023-10-08T01:30:58;11.50;99.90
24384;DHT22;12504;52.870;8.798;2023-10-08T01:33:26;11.50;99.90
24384;DHT22;12504;52.870;8.798;2023-10-08T01:36:03;11.50;99.90
24384;DHT22;12504;52.870;8.798;2023-10-08T01:38:33;11.50;99.90
24384;DHT22;12504;52.870;8.798;2023-10-08T01:40:58;11.50;99.90
24384;DHT22;12504;52.870;8.798;2023-10-08T01:43:29;11.50;99.90
24384;DHT22;12504;52.870;8.798;2023-10-08T01:45:55;11.50;99.90
24384;DHT22;12504;52.870;8.798;2023-10-08T01:48:21;11.50;99.90
24384;DHT22;12504;52.870;8.798;2023-10-08T01:51:03;11.50;99.90
24384;DHT22;12504;52.870;8.798;2023-10-08T01:53:35;11.50;99.90
24384;DHT22;12504;52.870;8.798;2023-10-08T01:56:01;11.50;99.90
24384;DHT22;12504;52.870;8.798;2023-10-08T01:58:29;11.50;99.90
24384;DHT22;12504;52.870;8.798;2023-10-08T02:00:56;11.50;99.90
24384;DHT22;12504;52.870;8.798;2023-10-08T02:03:25;11.50;99.90
24384;DHT22;12504;52.870;8.798;2023-10-08T02:05:53;11.50;99.90
24384;DHT22;12504;52.870;8.798;2023-10-08T02:08:19;11.50;99.90
24384;DHT22;12504;52.870;8.798;2023-10-08T02:10:46;11.50;99.90
24384;DHT22;12504;52.870;8.798;2023-10-08T02:13:15;11.40;99.90
24384;DHT22;12504;52.870;8.798;2023-10-08T02:15:44;11.40;99.90
24384;DHT22;12504;52.870;8.798;2023-10-08T02:18:10;11.40;99.90
24384;DHT22;12504;52.870;8.798;2023-10-08T02:20:36;11.40;99.90
24384;DHT22;12504;52.870;8.798;2023-10-08T02:23:02;11.40;99.90
24384;DHT22;12504;52.870;8.798;2023-10-08T02:25:31;11.40;99.90
24384;DHT22;12504;52.870;8.798;2023-10-08T02:27:57;11.40;99.90
24384;DHT22;12504;52.870;8.798;2023-10-08T02:30:23;11.40;99.90
24384;DHT22;12504;52.870;8.798;2023-10-08T02:32:49;11.40;99.90
24384;DHT22;12504;52.870;8.798;2023-10-08T02:35:15;11.40;99.90
24384;DHT22;12504;52.870;8.798;2023-10-08T02:37:41;11.40;99.90
24384;DHT22;12504;52.870;8.798;2023-10-08T02:40:08;11.40;99.90
24384;DHT22;12504;52.870;8.798;2023-10-08T02:42:43;11.40;99.90
24384;DHT22;12504;52.870;8.798;2023-10-08T02:45:11;11.40;99.90
24384;DHT22;12504;52.870;8.798;2023-10-08T02:47:41;11.40;99.90
24384;DHT22;12504;52.870;8.798;2023-10-08T02:50:08;11.30;99.90
24384;DHT22;12504;52.870;8.798;2023-10-08T02:52:34;11.30;99.90
24384;DHT22;12504;52.870;8.798;2023-10-08T02:55:00;11.30;99.90
24384;DHT22;12504;52.870;8.798;2023-10-08T02:57:26;11.40;99.90
24384;DHT22;12504;52.870;8.798;2023-10-08T02:59:55;11.40;99.90
24384;DHT22;12504;52.870;8.798;2023-10-08T03:02:21;11.40;99.90
24384;DHT22;12504;52.870;8.798;2023-10-08T03:04:48;11.40;99.90
24384;DHT22;12504;52.870;8.798;2023-10-08T03:07:17;11.40;99.90
24384;DHT22;12504;52.870;8.798;2023-10-08T03:09:59;11.40;99.90
24384;DHT22;12504;52.870;8.798;2023-10-08T03:12:51;11.30;99.90
24384;DHT22;12504;52.870;8.798;2023-10-08T03:15:16;11.40;99.90
24384;DHT22;12504;52.870;8.798;2023-10-08T03:17:55;11.30;99.90
24384;DHT22;12504;52.870;8.798;2023-10-08T03:20:23;11.30;99.90
24384;DHT22;12504;52.870;8.798;2023-10-08T03:23:04;11.30;99.90
24384;DHT22;12504;52.870;8.798;2023-10-08T03:25:39;11.30;99.90
24384;DHT22;12504;52.870;8.798;2023-10-08T03:28:10;11.30;99.90
24384;DHT22;12504;52.870;8.798;2023-10-08T03:30:39;11.30;99.90
24384;DHT22;12504;52.870;8.798;2023-10-08T03:33:21;11.30;99.90
24384;DHT22;12504;52.870;8.798;2023-10-08T03:35:52;11.40;99.90
24384;DHT22;12504;52.870;8.798;2023-10-08T03:38:21;11.40;99.90
24384;DHT22;12504;52.870;8.798;2023-10-08T03:40:56;11.30;99.90
24384;DHT22;12504;52.870;8.798;2023-10-08T03:43:27;11.30;99.90
24384;DHT22;12504;52.870;8.798;2023-10-08T03:46:09;11.30;99.90
24384;DHT22;12504;52.870;8.798;2023-10-08T03:48:43;11.40;99.90
24384;DHT22;12504;52.870;8.798;2023-10-08T03:51:13;11.40;99.90
24384;DHT22;12504;52.870;8.798;2023-10-08T03:53:40;11.40;99.90
24384;DHT22;12504;52.870;8.798;2023-10-08T03:56:27;11.40;99.90
24384;DHT22;12504;52.870;8.798;2023-10-08T03:59:00;11.30;99.90
24384;DHT22;12504;52.870;8.798;2023-10-08T04:01:47;11.30;99.90
24384;DHT22;12504;52.870;8.798;2023-10-08T04:04:21;11.30;99.90
24384;DHT22;12504;52.870;8.798;2023-10-08T04:06:49;11.30;99.90
24384;DHT22;12504;52.870;8.798;2023-10-08T04:09:17;11.30;99.90
24384;DHT22;12504;52.870;8.798;2023-10-08T04:11:46;11.20;99.90
24384;DHT22;12504;52.870;8.798;2023-10-08T04:14:15;11.20;99.90
24384;DHT22;12504;52.870;8.798;2023-10-08T04:16:44;11.30;99.90
24384;DHT22;12504;52.870;8.798;2023-10-08T04:19:11;11.20;99.90
24384;DHT22;12504;52.870;8.798;2023-10-08T04:21:38;11.20;99.90
24384;DHT22;12504;52.870;8.798;2023-10-08T04:24:07;11.20;99.90
24384;DHT22;12504;52.870;8.798;2023-10-08T04:26:34;11.10;99.90
24384;DHT22;12504;52.870;8.798;2023-10-08T04:29:01;11.20;99.90
24384;DHT22;12504;52.870;8.798;2023-10-08T04:31:28;11.10;99.90
24384;DHT22;12504;52.870;8.798;2023-10-08T04:34:12;11.20;99.90
24384;DHT22;12504;52.870;8.798;2023-10-08T04:36:45;11.10;99.90
24384;DHT22;12504;52.870;8.798;2023-10-08T04:39:11;11.20;99.90
24384;DHT22;12504;52.870;8.798;2023-10-08T04:41:41;11.20;99.90
24384;DHT22;12504;52.870;8.798;2023-10-08T04:44:09;11.20;99.90
24384;DHT22;12504;52.870;8.798;2023-10-08T04:46:43;11.20;99.90
24384;DHT22;12504;52.870;8.798;2023-10-08T04:49:15;11.30;99.90
24384;DHT22;12504;52.870;8.798;2023-10-08T04:51:59;11.20;99.90
24384;DHT22;12504;52.870;8.798;2023-10-08T04:54:27;11.20;99.90
24384;DHT22;12504;52.870;8.798;2023-10-08T04:57:02;11.20;99.90
24384;DHT22;12504;52.870;8.798;2023-10-08T04:59:30;11.30;99.90
24384;DHT22;12504;52.870;8.798;2023-10-08T05:02:00;11.30;99.90
24384;DHT22;12504;52.870;8.798;2023-10-08T05:04:39;11.30;99.90
24384;DHT22;12504;52.870;8.798;2023-10-08T05:07:17;11.40;99.90
24384;DHT22;12504;52.870;8.798;2023-10-08T05:09:49;11.30;99.90
24384;DHT22;12504;52.870;8.798;2023-10-08T05:12:37;11.30;99.90
24384;DHT22;12504;52.870;8.798;2023-10-08T05:15:04;11.30;99.90
24384;DHT22;12504;52.870;8.798;2023-10-08T05:17:46;11.30;99.90
24384;DHT22;12504;52.870;8.798;2023-10-08T05:20:19;11.40;99.90
24384;DHT22;12504;52.870;8.798;2023-10-08T05:22:55;11.30;99.90
24384;DHT22;12504;52.870;8.798;2023-10-08T05:25:31;11.40;99.90
24384;DHT22;12504;52.870;8.798;2023-10-08T05:28:19;11.30;99.90
24384;DHT22;12504;52.870;8.798;2023-10-08T05:30:50;11.40;99.90
24384;DHT22;12504;52.870;8.798;2023-10-08T05:33:20;11.40;99.90
24384;DHT22;12504;52.870;8.798;2023-10-08T05:36:09;11.40;99.90
24384;DHT22;12504;52.870;8.798;2023-10-08T05:38:43;11.40;99.90
24384;DHT22;12504;52.870;8.798;2023-10-08T05:41:26;11.40;99.90
24384;DHT22;12504;52.870;8.798;2023-10-08T05:44:15;11.40;99.90
24384;DHT22;12504;52.870;8.798;2023-10-08T05:46:49;11.40;99.90
24384;DHT22;12504;52.870;8.798;2023-10-08T05:49:22;11.40;99.90
24384;DHT22;12504;52.870;8.798;2023-10-08T05:51:57;11.40;99.90
24384;DHT22;12504;52.870;8.798;2023-10-08T05:54:28;11.40;99.90
24384;DHT22;12504;52.870;8.798;2023-10-08T05:57:01;11.40;99.90
24384;DHT22;12504;52.870;8.798;2023-10-08T05:59:43;11.40;99.90
24384;DHT22;12504;52.870;8.798;2023-10-08T06:02:40;11.40;99.90
24384;DHT22;12504;52.870;8.798;2023-10-08T06:05:10;11.40;99.90
24384;DHT22;12504;52.870;8.798;2023-10-08T06:07:50;11.40;99.90
24384;DHT22;12504;52.870;8.798;2023-10-08T06:10:29;11.40;99.90
24384;DHT22;12504;52.870;8.798;2023-10-08T06:12:59;11.40;99.90
24384;DHT22;12504;52.870;8.798;2023-10-08T06:15:36;11.50;99.90
24384;DHT22;12504;52.870;8.798;2023-10-08T06:18:18;11.50;99.90
24384;DHT22;12504;52.870;8.798;2023-10-08T06:20:44;11.50;99.90
24384;DHT22;12504;52.870;8.798;2023-10-08T06:23:15;11.60;99.90
24384;DHT22;12504;52.870;8.798;2023-10-08T06:25:47;11.60;99.90
24384;DHT22;12504;52.870;8.798;2023-10-08T06:28:20;11.60;99.90
24384;DHT22;12504;52.870;8.798;2023-10-08T06:30:51;11.60;99.90
24384;DHT22;12504;52.870;8.798;2023-10-08T06:33:19;11.70;99.90
24384;DHT22;12504;52.870;8.798;2023-10-08T06:35:46;11.60;99.90
24384;DHT22;12504;52.870;8.798;2023-10-08T06:38:47;11.70;99.90
24384;DHT22;12504;52.870;8.798;2023-10-08T06:41:15;11.80;99.90
24384;DHT22;12504;52.870;8.798;2023-10-08T06:43:45;11.70;99.90
24384;DHT22;12504;52.870;8.798;2023-10-08T06:46:14;11.80;99.90
24384;DHT22;12504;52.870;8.798;2023-10-08T06:48:41;11.80;99.90
24384;DHT22;12504;52.870;8.798;2023-10-08T06:51:10;11.80;99.90
24384;DHT22;12504;52.870;8.798;2023-10-08T06:53:42;11.90;99.90
24384;DHT22;12504;52.870;8.798;2023-10-08T06:56:13;12.00;99.90
24384;DHT22;12504;52.870;8.798;2023-10-08T06:58:40;12.00;99.90
24384;DHT22;12504;52.870;8.798;2023-10-08T07:01:11;12.00;99.90
24384;DHT22;12504;52.870;8.798;2023-10-08T07:03:38;12.00;99.90
24384;DHT22;12504;52.870;8.798;2023-10-08T07:06:04;12.10;99.90
24384;DHT22;12504;52.870;8.798;2023-10-08T07:08:43;12.10;99.90
24384;DHT22;12504;52.870;8.798;2023-10-08T07:11:09;12.10;99.90
24384;DHT22;12504;52.870;8.798;2023-10-08T07:13:37;12.10;99.90
24384;DHT22;12504;52.870;8.798;2023-10-08T07:16:05;12.10;99.90
24384;DHT22;12504;52.870;8.798;2023-10-08T07:18:33;12.10;99.90
24384;DHT22;12504;52.870;8.798;2023-10-08T07:20:59;12.10;99.90
24384;DHT22;12504;52.870;8.798;2023-10-08T07:23:30;12.10;99.90
24384;DHT22;12504;52.870;8.798;2023-10-08T07:26:02;12.20;99.90
24384;DHT22;12504;52.870;8.798;2023-10-08T07:28:43;12.20;99.90
24384;DHT22;12504;52.870;8.798;2023-10-08T07:31:15;12.40;99.90
24384;DHT22;12504;52.870;8.798;2023-10-08T07:33:46;12.40;99.90
24384;DHT22;12504;52.870;8.798;2023-10-08T07:36:11;12.50;99.90
24384;DHT22;12504;52.870;8.798;2023-10-08T07:38:41;12.60;99.90
24384;DHT22;12504;52.870;8.798;2023-10-08T07:41:10;12.50;99.90
24384;DHT22;12504;52.870;8.798;2023-10-08T07:43:39;12.50;99.90
24384;DHT22;12504;52.870;8.798;2023-10-08T07:46:05;12.40;99.90
24384;DHT22;12504;52.870;8.798;2023-10-08T07:48:31;12.40;99.90
24384;DHT22;12504;52.870;8.798;2023-10-08T07:50:57;12.40;99.90
24384;DHT22;12504;52.870;8.798;2023-10-08T07:53:24;12.30;99.90
24384;DHT22;12504;52.870;8.798;2023-10-08T07:55:50;12.40;99.90
24384;DHT22;12504;52.870;8.798;2023-10-08T07:58:17;12.40;99.90
24384;DHT22;12504;52.870;8.798;2023-10-08T08:00:44;12.50;99.90
24384;DHT22;12504;52.870;8.798;2023-10-08T08:03:22;12.60;99.90
24384;DHT22;12504;52.870;8.798;2023-10-08T08:05:48;12.50;99.90
24384;DHT22;12504;52.870;8.798;2023-10-08T08:08:18;12.40;99.90
24384;DHT22;12504;52.870;8.798;2023-10-08T08:10:44;12.50;99.90
24384;DHT22;12504;52.870;8.798;2023-10-08T08:13:11;12.60;99.90
24384;DHT22;12504;52.870;8.798;2023-10-08T08:15:37;12.70;99.90
24384;DHT22;12504;52.870;8.798;2023-10-08T08:18:08;12.70;99.90
24384;DHT22;12504;52.870;8.798;2023-10-08T08:20:41;12.80;99.90
24384;DHT22;12504;52.870;8.798;2023-10-08T08:23:09;12.90;99.90
24384;DHT22;12504;52.870;8.798;2023-10-08T08:25:41;12.90;99.90
24384;DHT22;12504;52.870;8.798;2023-10-08T08:28:22;12.90;99.90
24384;DHT22;12504;52.870;8.798;2023-10-08T08:30:51;13.10;99.90
24384;DHT22;12504;52.870;8.798;2023-10-08T08:33:18;13.20;99.90
24384;DHT22;12504;52.870;8.798;2023-10-08T08:36:02;13.20;99.90
24384;DHT22;12504;52.870;8.798;2023-10-08T08:38:31;13.10;99.90
24384;DHT22;12504;52.870;8.798;2023-10-08T08:41:06;13.20;99.90
24384;DHT22;12504;52.870;8.798;2023-10-08T08:43:36;13.30;99.90
24384;DHT22;12504;52.870;8.798;2023-10-08T08:46:05;13.40;99.90
24384;DHT22;12504;52.870;8.798;2023-10-08T08:48:33;13.50;99.90
24384;DHT22;12504;52.870;8.798;2023-10-08T08:51:00;13.50;99.90
24384;DHT22;12504;52.870;8.798;2023-10-08T08:53:26;13.70;99.90
24384;DHT22;12504;52.870;8.798;2023-10-08T08:55:53;13.80;99.90
24384;DHT22;12504;52.870;8.798;2023-10-08T08:58:21;14.00;99.90
24384;DHT22;12504;52.870;8.798;2023-10-08T09:00:52;14.10;99.90
24384;DHT22;12504;52.870;8.798;2023-10-08T09:03:18;14.10;99.90
24384;DHT22;12504;52.870;8.798;2023-10-08T09:05:45;14.10;99.90
24384;DHT22;12504;52.870;8.798;2023-10-08T09:08:16;14.10;99.90
24384;DHT22;12504;52.870;8.798;2023-10-08T09:10:44;14.10;99.90
24384;DHT22;12504;52.870;8.798;2023-10-08T09:13:22;14.10;99.90
24384;DHT22;12504;52.870;8.798;2023-10-08T09:15:49;14.00;99.90
24384;DHT22;12504;52.870;8.798;2023-10-08T09:18:15;13.90;99.90
24384;DHT22;12504;52.870;8.798;2023-10-08T09:20:40;13.80;99.90
24384;DHT22;12504;52.870;8.798;2023-10-08T09:23:16;13.90;99.90
24384;DHT22;12504;52.870;8.798;2023-10-08T09:25:47;13.90;99.90
24384;DHT22;12504;52.870;8.798;2023-10-08T09:28:15;13.80;99.90
24384;DHT22;12504;52.870;8.798;2023-10-08T09:30:42;13.80;99.90
24384;DHT22;12504;52.870;8.798;2023-10-08T09:33:12;13.80;99.90
24384;DHT22;12504;52.870;8.798;2023-10-08T09:35:38;13.80;99.90
24384;DHT22;12504;52.870;8.798;2023-10-08T09:38:07;13.90;99.90
24384;DHT22;12504;52.870;8.798;2023-10-08T09:40:40;14.10;99.90
24384;DHT22;12504;52.870;8.798;2023-10-08T09:43:13;14.20;99.90
24384;DHT22;12504;52.870;8.798;2023-10-08T09:45:43;14.30;99.90
24384;DHT22;12504;52.870;8.798;2023-10-08T09:48:16;14.50;99.90
24384;DHT22;12504;52.870;8.798;2023-10-08T09:50:42;14.60;99.90
24384;DHT22;12504;52.870;8.798;2023-10-08T09:53:10;14.70;99.90
24384;DHT22;12504;52.870;8.798;2023-10-08T09:55:54;14.80;99.90
24384;DHT22;12504;52.870;8.798;2023-10-08T09:58:22;14.80;99.90
24384;DHT22;12504;52.870;8.798;2023-10-08T10:00:51;14.90;99.90
24384;DHT22;12504;52.870;8.798;2023-10-08T10:03:18;15.00;99.90
24384;DHT22;12504;52.870;8.798;2023-10-08T10:05:50;15.10;99.90
24384;DHT22;12504;52.870;8.798;2023-10-08T10:08:16;15.10;99.90
24384;DHT22;12504;52.870;8.798;2023-10-08T10:10:42;15.20;99.90
24384;DHT22;12504;52.870;8.798;2023-10-08T10:13:13;15.40;99.90
24384;DHT22;12504;52.870;8.798;2023-10-08T10:15:42;15.40;99.90
24384;DHT22;12504;52.870;8.798;2023-10-08T10:18:09;15.50;99.90
24384;DHT22;12504;52.870;8.798;2023-10-08T10:20:47;15.70;99.90
24384;DHT22;12504;52.870;8.798;2023-10-08T10:26:02;16.10;99.90
24384;DHT22;12504;52.870;8.798;2023-10-08T10:28:28;16.30;99.90
24384;DHT22;12504;52.870;8.798;2023-10-08T10:30:55;16.50;99.90
24384;DHT22;12504;52.870;8.798;2023-10-08T10:33:34;16.10;99.90
24384;DHT22;12504;52.870;8.798;2023-10-08T10:36:03;16.30;99.90
24384;DHT22;12504;52.870;8.798;2023-10-08T10:38:34;16.40;99.90
24384;DHT22;12504;52.870;8.798;2023-10-08T10:41:03;16.30;99.90
24384;DHT22;12504;52.870;8.798;2023-10-08T10:43:34;16.40;99.90
24384;DHT22;12504;52.870;8.798;2023-10-08T10:46:00;16.50;99.90
24384;DHT22;12504;52.870;8.798;2023-10-08T10:48:46;16.50;99.90
24384;DHT22;12504;52.870;8.798;2023-10-08T10:51:22;16.80;99.90
24384;DHT22;12504;52.870;8.798;2023-10-08T10:53:48;16.80;99.90
24384;DHT22;12504;52.870;8.798;2023-10-08T10:56:24;17.00;99.90
24384;DHT22;12504;52.870;8.798;2023-10-08T10:59:00;17.00;99.90
24384;DHT22;12504;52.870;8.798;2023-10-08T11:01:27;16.90;99.90
24384;DHT22;12504;52.870;8.798;2023-10-08T11:03:56;16.60;99.90
24384;DHT22;12504;52.870;8.798;2023-10-08T11:06:23;16.70;99.90
24384;DHT22;12504;52.870;8.798;2023-10-08T11:08:53;16.70;99.90
24384;DHT22;12504;52.870;8.798;2023-10-08T11:11:25;16.50;99.90
24384;DHT22;12504;52.870;8.798;2023-10-08T11:13:59;16.70;99.90
24384;DHT22;12504;52.870;8.798;2023-10-08T11:16:26;16.90;99.90
24384;DHT22;12504;52.870;8.798;2023-10-08T11:18:53;17.20;99.90
24384;DHT22;12504;52.870;8.798;2023-10-08T11:21:23;18.40;99.90
24384;DHT22;12504;52.870;8.798;2023-10-08T11:23:51;20.70;99.90
24384;DHT22;12504;52.870;8.798;2023-10-08T11:26:22;21.50;99.90
24384;DHT22;12504;52.870;8.798;2023-10-08T11:28:58;21.20;99.90
24384;DHT22;12504;52.870;8.798;2023-10-08T11:31:27;21.30;99.90
24384;DHT22;12504;52.870;8.798;2023-10-08T11:33:59;21.10;99.90
24384;DHT22;12504;52.870;8.798;2023-10-08T11:36:24;20.50;99.90
24384;DHT22;12504;52.870;8.798;2023-10-08T11:39:09;19.50;99.90
24384;DHT22;12504;52.870;8.798;2023-10-08T11:41:36;18.30;99.90
24384;DHT22;12504;52.870;8.798;2023-10-08T11:44:15;17.80;99.90
24384;DHT22;12504;52.870;8.798;2023-10-08T11:46:45;17.60;99.90
24384;DHT22;12504;52.870;8.798;2023-10-08T11:49:11;17.50;99.90
24384;DHT22;12504;52.870;8.798;2023-10-08T11:51:44;17.50;99.90
24384;DHT22;12504;52.870;8.798;2023-10-08T11:54:11;17.20;99.90
24384;DHT22;12504;52.870;8.798;2023-10-08T11:56:40;17.20;99.90
24384;DHT22;12504;52.870;8.798;2023-10-08T11:59:06;17.20;99.90
24384;DHT22;12504;52.870;8.798;2023-10-08T12:01:38;17.30;99.90
24384;DHT22;12504;52.870;8.798;2023-10-08T12:04:08;17.20;99.90
24384;DHT22;12504;52.870;8.798;2023-10-08T12:06:40;17.30;99.90
24384;DHT22;12504;52.870;8.798;2023-10-08T12:09:13;17.00;99.90
24384;DHT22;12504;52.870;8.798;2023-10-08T12:11:39;16.90;99.90
24384;DHT22;12504;52.870;8.798;2023-10-08T12:14:06;16.70;99.90
24384;DHT22;12504;52.870;8.798;2023-10-08T12:16:31;16.70;99.90
24384;DHT22;12504;52.870;8.798;2023-10-08T12:19:02;16.40;99.90
24384;DHT22;12504;52.870;8.798;2023-10-08T12:21:31;16.30;99.90
24384;DHT22;12504;52.870;8.798;2023-10-08T12:24:01;16.10;99.90
24384;DHT22;12504;52.870;8.798;2023-10-08T12:26:31;16.30;99.90
24384;DHT22;12504;52.870;8.798;2023-10-08T12:28:57;16.80;99.90
24384;DHT22;12504;52.870;8.798;2023-10-08T12:31:23;17.20;99.90
24384;DHT22;12504;52.870;8.798;2023-10-08T12:33:50;17.60;99.90
24384;DHT22;12504;52.870;8.798;2023-10-08T12:36:22;17.90;99.90
24384;DHT22;12504;52.870;8.798;2023-10-08T12:38:52;17.80;99.90
24384;DHT22;12504;52.870;8.798;2023-10-08T12:41:27;18.10;99.90
24384;DHT22;12504;52.870;8.798;2023-10-08T12:43:53;18.50;99.90
24384;DHT22;12504;52.870;8.798;2023-10-08T12:46:22;18.40;99.90
24384;DHT22;12504;52.870;8.798;2023-10-08T12:48:52;18.60;99.90
24384;DHT22;12504;52.870;8.798;2023-10-08T12:51:20;18.70;99.90
24384;DHT22;12504;52.870;8.798;2023-10-08T12:53:49;18.50;99.90
24384;DHT22;12504;52.870;8.798;2023-10-08T12:56:29;18.40;99.90
24384;DHT22;12504;52.870;8.798;2023-10-08T12:59:01;18.20;99.90
24384;DHT22;12504;52.870;8.798;2023-10-08T13:01:30;18.40;99.90
24384;DHT22;12504;52.870;8.798;2023-10-08T13:03:56;18.30;99.90
24384;DHT22;12504;52.870;8.798;2023-10-08T13:06:36;18.30;99.90
24384;DHT22;12504;52.870;8.798;2023-10-08T13:09:05;18.30;99.90
24384;DHT22;12504;52.870;8.798;2023-10-08T13:11:40;18.10;99.90
24384;DHT22;12504;52.870;8.798;2023-10-08T13:14:06;17.80;99.90
24384;DHT22;12504;52.870;8.798;2023-10-08T13:16:31;17.90;99.90
24384;DHT22;12504;52.870;8.798;2023-10-08T13:18:58;17.80;99.90
24384;DHT22;12504;52.870;8.798;2023-10-08T13:21:25;17.80;99.90
24384;DHT22;12504;52.870;8.798;2023-10-08T13:24:00;17.80;99.90
24384;DHT22;12504;52.870;8.798;2023-10-08T13:26:28;17.60;99.90
24384;DHT22;12504;52.870;8.798;2023-10-08T13:29:00;18.10;99.90
24384;DHT22;12504;52.870;8.798;2023-10-08T13:31:27;18.40;99.90
24384;DHT22;12504;52.870;8.798;2023-10-08T13:33:53;18.40;99.90
24384;DHT22;12504;52.870;8.798;2023-10-08T13:36:22;18.60;99.90
24384;DHT22;12504;52.870;8.798;2023-10-08T13:38:49;19.10;99.90
24384;DHT22;12504;52.870;8.798;2023-10-08T13:41:15;19.50;99.90
24384;DHT22;12504;52.870;8.798;2023-10-08T13:43:42;19.40;99.90
24384;DHT22;12504;52.870;8.798;2023-10-08T13:46:11;19.60;99.90
24384;DHT22;12504;52.870;8.798;2023-10-08T13:48:41;19.90;99.90
24384;DHT22;12504;52.870;8.798;2023-10-08T13:51:08;19.90;99.90
24384;DHT22;12504;52.870;8.798;2023-10-08T13:53:48;19.70;99.90
24384;DHT22;12504;52.870;8.798;2023-10-08T13:56:21;19.90;99.90
24384;DHT22;12504;52.870;8.798;2023-10-08T13:58:50;19.50;99.90
24384;DHT22;12504;52.870;8.798;2023-10-08T14:01:17;19.90;99.90
24384;DHT22;12504;52.870;8.798;2023-10-08T14:03:50;19.60;99.90
24384;DHT22;12504;52.870;8.798;2023-10-08T14:06:19;19.80;99.90
24384;DHT22;12504;52.870;8.798;2023-10-08T14:08:46;19.70;99.90
24384;DHT22;12504;52.870;8.798;2023-10-08T14:11:21;19.60;99.90
24384;DHT22;12504;52.870;8.798;2023-10-08T14:13:52;19.30;99.90
24384;DHT22;12504;52.870;8.798;2023-10-08T14:16:19;18.90;99.90
24384;DHT22;12504;52.870;8.798;2023-10-08T14:18:50;18.60;99.90
24384;DHT22;12504;52.870;8.798;2023-10-08T14:21:20;18.40;99.90
24384;DHT22;12504;52.870;8.798;2023-10-08T14:23:52;18.50;99.90
24384;DHT22;12504;52.870;8.798;2023-10-08T14:26:18;18.50;99.90
24384;DHT22;12504;52.870;8.798;2023-10-08T14:28:48;18.60;99.90
24384;DHT22;12504;52.870;8.798;2023-10-08T14:31:19;18.50;99.90
24384;DHT22;12504;52.870;8.798;2023-10-08T14:33:48;18.60;99.90
24384;DHT22;12504;52.870;8.798;2023-10-08T14:36:52;18.40;99.90
24384;DHT22;12504;52.870;8.798;2023-10-08T14:39:36;18.30;99.90
24384;DHT22;12504;52.870;8.798;2023-10-08T14:42:21;18.20;99.90
24384;DHT22;12504;52.870;8.798;2023-10-08T14:45:05;18.00;99.90
24384;DHT22;12504;52.870;8.798;2023-10-08T14:47:39;17.90;99.90
24384;DHT22;12504;52.870;8.798;2023-10-08T14:50:06;17.90;99.90
24384;DHT22;12504;52.870;8.798;2023-10-08T14:52:35;17.70;99.90
24384;DHT22;12504;52.870;8.798;2023-10-08T14:55:01;17.80;99.90
24384;DHT22;12504;52.870;8.798;2023-10-08T14:57:26;17.50;99.90
24384;DHT22;12504;52.870;8.798;2023-10-08T14:59:52;17.70;99.90
24384;DHT22;12504;52.870;8.798;2023-10-08T15:02:18;17.60;99.90
24384;DHT22;12504;52.870;8.798;2023-10-08T15:04:43;17.60;99.90
24384;DHT22;12504;52.870;8.798;2023-10-08T15:07:10;17.60;99.90
24384;DHT22;12504;52.870;8.798;2023-10-08T15:09:43;17.20;99.90
24384;DHT22;12504;52.870;8.798;2023-10-08T15:12:10;16.70;99.90
24384;DHT22;12504;52.870;8.798;2023-10-08T15:14:36;16.50;99.90
24384;DHT22;12504;52.870;8.798;2023-10-08T15:17:04;16.50;99.90
24384;DHT22;12504;52.870;8.798;2023-10-08T15:19:30;16.30;99.90
24384;DHT22;12504;52.870;8.798;2023-10-08T15:21:57;16.10;99.90
24384;DHT22;12504;52.870;8.798;2023-10-08T15:24:23;16.10;99.90
24384;DHT22;12504;52.870;8.798;2023-10-08T15:26:50;15.90;99.90
24384;DHT22;12504;52.870;8.798;2023-10-08T15:29:18;15.90;99.90
24384;DHT22;12504;52.870;8.798;2023-10-08T15:31:44;15.80;99.90
24384;DHT22;12504;52.870;8.798;2023-10-08T15:34:11;15.70;99.90
24384;DHT22;12504;52.870;8.798;2023-10-08T15:36:41;15.60;99.90
24384;DHT22;12504;52.870;8.798;2023-10-08T15:39:07;15.40;99.90
24384;DHT22;12504;52.870;8.798;2023-10-08T15:41:38;15.10;99.90
24384;DHT22;12504;52.870;8.798;2023-10-08T15:44:05;14.90;99.90
24384;DHT22;12504;52.870;8.798;2023-10-08T15:46:32;14.60;99.90
24384;DHT22;12504;52.870;8.798;2023-10-08T16:03:39;14.30;99.90
24384;DHT22;12504;52.870;8.798;2023-10-08T16:06:05;14.30;99.90
24384;DHT22;12504;52.870;8.798;2023-10-08T16:08:31;14.30;99.90
24384;DHT22;12504;52.870;8.798;2023-10-08T16:10:56;14.20;99.90